sensor_id;sensor_type;location;lat;lon;timestamp;pressure;altitude;pressure_sealevel;temperature;humidity
55474;BME280;65220;52.214;0.116;2023-06-24T00:01:49;102296.51;;;18.85;37.36
55474;BME280;65220;52.214;0.116;2023-06-24T00:04:14;102296.50;;;19.27;37.35
55474;BME280;65220;52.214;0.116;2023-06-24T00:06:39;102295.10;;;18.88;37.35
55474;BME280;65220;52.214;0.116;2023-06-24T00:09:05;102296.63;;;19.19;37.34
55474;BME280;65220;52.214;0.116;2023-06-24T00:11:30;102292.56;;;19.00;37.41
55474;BME280;65220;52.214;0.116;2023-06-24T00:13:56;102287.97;;;18.90;37.41
55474;BME280;65220;52.214;0.116;2023-06-24T00:16:20;102287.09;;;18.92;37.38
55474;BME280;65220;52.214;0.116;2023-06-24T00:18:46;102285.90;;;19.02;37.41
55474;BME280;65220;52.214;0.116;2023-06-24T00:21:11;102285.81;;;18.79;37.44
55474;BME280;65220;52.214;0.116;2023-06-24T00:23:37;102287.22;;;18.92;37.42
55474;BME280;65220;52.214;0.116;2023-06-24T00:26:02;102284.54;;;19.01;37.43
55474;BME280;65220;52.214;0.116;2023-06-24T00:28:27;102283.36;;;18.80;37.46
55474;BME280;65220;52.214;0.116;2023-06-24T00:30:52;102282.11;;;18.88;37.49
55474;BME280;65220;52.214;0.116;2023-06-24T00:33:17;102279.21;;;18.96;37.51
55474;BME280;65220;52.214;0.116;2023-06-24T00:35:43;102277.40;;;18.84;37.53
55474;BME280;65220;52.214;0.116;2023-06-24T00:38:07;102279.47;;;19.38;37.49
55474;BME280;65220;52.214;0.116;2023-06-24T00:40:33;102279.60;;;18.86;37.51
55474;BME280;65220;52.214;0.116;2023-06-24T00:42:58;102280.67;;;18.74;37.54
55474;BME280;65220;52.214;0.116;2023-06-24T00:45:24;102280.04;;;19.11;37.58
55474;BME280;65220;52.214;0.116;2023-06-24T00:47:49;102281.66;;;18.83;37.57
55474;BME280;65220;52.214;0.116;2023-06-24T00:50:14;102277.49;;;18.76;37.67
55474;BME280;65220;52.214;0.116;2023-06-24T00:52:39;102279.80;;;18.80;37.68
55474;BME280;65220;52.214;0.116;2023-06-24T00:55:05;102282.78;;;18.85;37.67
55474;BME280;65220;52.214;0.116;2023-06-24T00:57:29;102283.92;;;18.66;37.67
55474;BME280;65220;52.214;0.116;2023-06-24T00:59:55;102279.78;;;18.84;37.69
55474;BME280;65220;52.214;0.116;2023-06-24T01:02:20;102281.92;;;18.94;37.70
55474;BME280;65220;52.214;0.116;2023-06-24T01:04:46;102281.52;;;18.67;37.68
55474;BME280;65220;52.214;0.116;2023-06-24T01:07:10;102279.49;;;18.70;37.65
55474;BME280;65220;52.214;0.116;2023-06-24T01:09:35;102277.85;;;18.64;37.71
55474;BME280;65220;52.214;0.116;2023-06-24T01:12:00;102277.13;;;18.82;37.73
55474;BME280;65220;52.214;0.116;2023-06-24T01:14:26;102280.63;;;18.70;37.76
55474;BME280;65220;52.214;0.116;2023-06-24T01:16:59;102281.44;;;18.60;37.76
55474;BME280;65220;52.214;0.116;2023-06-24T01:19:33;102283.50;;;18.70;37.78
55474;BME280;65220;52.214;0.116;2023-06-24T01:21:49;102280.97;;;18.91;37.77
55474;BME280;65220;52.214;0.116;2023-06-24T01:24:22;102279.24;;;18.93;37.75
55474;BME280;65220;52.214;0.116;2023-06-24T01:29:09;102275.56;;;18.84;38.26
55474;BME280;65220;52.214;0.116;2023-06-24T01:31:51;102270.17;;;17.16;38.19
55474;BME280;65220;52.214;0.116;2023-06-24T01:33:46;102272.86;;;17.29;37.78
55474;BME280;65220;52.214;0.116;2023-06-24T01:36:12;102274.16;;;18.92;37.45
55474;BME280;65220;52.214;0.116;2023-06-24T01:38:38;102271.81;;;18.86;37.60
55474;BME280;65220;52.214;0.116;2023-06-24T01:41:01;102270.17;;;18.55;37.75
55474;BME280;65220;52.214;0.116;2023-06-24T01:43:24;102267.93;;;18.81;37.80
55474;BME280;65220;52.214;0.116;2023-06-24T01:45:51;102264.32;;;18.63;37.86
55474;BME280;65220;52.214;0.116;2023-06-24T01:48:16;102263.76;;;18.92;37.89
55474;BME280;65220;52.214;0.116;2023-06-24T01:50:44;102262.43;;;18.46;37.94
55474;BME280;65220;52.214;0.116;2023-06-24T01:53:06;102262.00;;;18.76;37.95
55474;BME280;65220;52.214;0.116;2023-06-24T01:55:32;102263.59;;;18.55;37.95
55474;BME280;65220;52.214;0.116;2023-06-24T01:57:57;102264.83;;;18.44;37.96
55474;BME280;65220;52.214;0.116;2023-06-24T02:00:21;102264.86;;;18.71;38.00
55474;BME280;65220;52.214;0.116;2023-06-24T02:02:47;102266.29;;;18.37;38.04
55474;BME280;65220;52.214;0.116;2023-06-24T02:05:13;102264.62;;;18.62;38.00
55474;BME280;65220;52.214;0.116;2023-06-24T02:07:38;102264.83;;;18.61;38.00
55474;BME280;65220;52.214;0.116;2023-06-24T02:10:03;102266.78;;;18.42;38.05
55474;BME280;65220;52.214;0.116;2023-06-24T02:12:28;102266.20;;;18.53;38.01
55474;BME280;65220;52.214;0.116;2023-06-24T02:14:54;102263.77;;;18.55;38.08
55474;BME280;65220;52.214;0.116;2023-06-24T02:17:19;102265.89;;;18.44;38.09
55474;BME280;65220;52.214;0.116;2023-06-24T02:19:43;102270.17;;;18.38;38.16
55474;BME280;65220;52.214;0.116;2023-06-24T02:22:08;102271.11;;;18.28;38.15
55474;BME280;65220;52.214;0.116;2023-06-24T02:24:33;102272.23;;;18.68;38.12
55474;BME280;65220;52.214;0.116;2023-06-24T02:26:59;102271.09;;;18.47;38.16
55474;BME280;65220;52.214;0.116;2023-06-24T02:29:26;102269.62;;;18.74;38.22
55474;BME280;65220;52.214;0.116;2023-06-24T02:31:49;102266.04;;;18.47;38.17
55474;BME280;65220;52.214;0.116;2023-06-24T02:34:15;102271.11;;;18.43;38.20
55474;BME280;65220;52.214;0.116;2023-06-24T02:36:39;102270.25;;;18.52;38.23
55474;BME280;65220;52.214;0.116;2023-06-24T02:39:04;102274.10;;;18.33;38.22
55474;BME280;65220;52.214;0.116;2023-06-24T02:41:29;102272.05;;;18.25;38.21
55474;BME280;65220;52.214;0.116;2023-06-24T02:43:54;102271.50;;;18.55;38.20
55474;BME280;65220;52.214;0.116;2023-06-24T02:46:20;102268.73;;;18.33;38.20
55474;BME280;65220;52.214;0.116;2023-06-24T02:48:46;102270.23;;;18.40;38.23
55474;BME280;65220;52.214;0.116;2023-06-24T02:51:11;102270.53;;;18.60;38.27
55474;BME280;65220;52.214;0.116;2023-06-24T02:53:37;102267.01;;;18.28;38.32
55474;BME280;65220;52.214;0.116;2023-06-24T02:56:01;102268.11;;;18.53;38.22
55474;BME280;65220;52.214;0.116;2023-06-24T02:58:26;102268.18;;;18.29;38.27
55474;BME280;65220;52.214;0.116;2023-06-24T03:00:52;102272.48;;;18.45;38.30
55474;BME280;65220;52.214;0.116;2023-06-24T03:03:17;102269.83;;;18.22;38.31
55474;BME280;65220;52.214;0.116;2023-06-24T03:05:42;102268.77;;;18.44;38.31
55474;BME280;65220;52.214;0.116;2023-06-24T03:08:07;102271.59;;;18.42;38.33
55474;BME280;65220;52.214;0.116;2023-06-24T03:10:32;102261.42;;;18.29;38.35
55474;BME280;65220;52.214;0.116;2023-06-24T03:12:57;102264.52;;;18.30;38.33
55474;BME280;65220;52.214;0.116;2023-06-24T03:15:22;102260.23;;;18.41;38.33
55474;BME280;65220;52.214;0.116;2023-06-24T03:17:47;102261.63;;;18.38;38.35
55474;BME280;65220;52.214;0.116;2023-06-24T03:20:13;102266.55;;;18.54;38.38
55474;BME280;65220;52.214;0.116;2023-06-24T03:22:38;102267.27;;;18.56;38.38
55474;BME280;65220;52.214;0.116;2023-06-24T03:25:04;102267.81;;;18.39;38.41
55474;BME280;65220;52.214;0.116;2023-06-24T03:27:28;102267.62;;;18.10;38.42
55474;BME280;65220;52.214;0.116;2023-06-24T03:29:53;102267.35;;;18.70;38.43
55474;BME280;65220;52.214;0.116;2023-06-24T03:32:18;102268.43;;;18.36;38.46
55474;BME280;65220;52.214;0.116;2023-06-24T03:34:44;102270.54;;;18.15;38.41
55474;BME280;65220;52.214;0.116;2023-06-24T03:37:09;102267.02;;;18.34;38.38
55474;BME280;65220;52.214;0.116;2023-06-24T03:39:34;102269.22;;;18.12;38.48
55474;BME280;65220;52.214;0.116;2023-06-24T03:41:59;102270.31;;;18.60;38.49
55474;BME280;65220;52.214;0.116;2023-06-24T03:44:24;102272.93;;;18.30;38.50
55474;BME280;65220;52.214;0.116;2023-06-24T03:46:50;102269.14;;;18.13;38.56
55474;BME280;65220;52.214;0.116;2023-06-24T03:49:15;102268.97;;;18.36;38.54
55474;BME280;65220;52.214;0.116;2023-06-24T03:51:40;102270.26;;;18.20;38.57
55474;BME280;65220;52.214;0.116;2023-06-24T03:54:05;102273.85;;;18.19;38.59
55474;BME280;65220;52.214;0.116;2023-06-24T03:56:31;102271.69;;;18.48;38.60
55474;BME280;65220;52.214;0.116;2023-06-24T03:58:56;102275.26;;;18.24;38.63
55474;BME280;65220;52.214;0.116;2023-06-24T04:01:21;102275.06;;;18.49;38.66
55474;BME280;65220;52.214;0.116;2023-06-24T04:03:46;102274.27;;;18.06;38.70
55474;BME280;65220;52.214;0.116;2023-06-24T04:06:11;102277.69;;;18.45;38.70
55474;BME280;65220;52.214;0.116;2023-06-24T04:08:37;102276.91;;;18.07;38.65
55474;BME280;65220;52.214;0.116;2023-06-24T04:11:03;102280.45;;;18.29;38.60
55474;BME280;65220;52.214;0.116;2023-06-24T04:13:28;102276.77;;;18.05;38.61
55474;BME280;65220;52.214;0.116;2023-06-24T04:15:53;102278.47;;;18.23;38.62
55474;BME280;65220;52.214;0.116;2023-06-24T04:18:19;102278.62;;;18.13;38.68
55474;BME280;65220;52.214;0.116;2023-06-24T04:20:43;102280.45;;;18.04;38.68
55474;BME280;65220;52.214;0.116;2023-06-24T04:23:08;102284.62;;;18.23;38.67
55474;BME280;65220;52.214;0.116;2023-06-24T04:25:34;102280.44;;;18.40;38.71
55474;BME280;65220;52.214;0.116;2023-06-24T04:27:59;102280.16;;;17.85;38.70
55474;BME280;65220;52.214;0.116;2023-06-24T04:30:24;102283.83;;;18.29;38.72
55474;BME280;65220;52.214;0.116;2023-06-24T04:32:49;102286.19;;;18.07;38.73
55474;BME280;65220;52.214;0.116;2023-06-24T04:35:14;102284.93;;;17.87;38.71
55474;BME280;65220;52.214;0.116;2023-06-24T04:37:40;102282.97;;;18.01;38.67
55474;BME280;65220;52.214;0.116;2023-06-24T04:40:06;102285.18;;;18.16;38.73
55474;BME280;65220;52.214;0.116;2023-06-24T04:42:30;102287.92;;;18.24;38.74
55474;BME280;65220;52.214;0.116;2023-06-24T04:44:55;102285.90;;;18.43;38.83
55474;BME280;65220;52.214;0.116;2023-06-24T04:47:20;102284.87;;;18.21;38.73
55474;BME280;65220;52.214;0.116;2023-06-24T04:49:46;102283.97;;;18.26;38.73
55474;BME280;65220;52.214;0.116;2023-06-24T04:52:11;102288.08;;;18.12;38.75
55474;BME280;65220;52.214;0.116;2023-06-24T04:54:37;102288.74;;;18.34;38.75
55474;BME280;65220;52.214;0.116;2023-06-24T04:57:09;102284.29;;;18.09;38.68
55474;BME280;65220;52.214;0.116;2023-06-24T04:59:27;102283.52;;;18.24;38.70
55474;BME280;65220;52.214;0.116;2023-06-24T05:01:53;102282.97;;;17.92;38.75
55474;BME280;65220;52.214;0.116;2023-06-24T05:04:18;102281.40;;;18.05;38.72
55474;BME280;65220;52.214;0.116;2023-06-24T05:06:43;102286.07;;;18.22;38.74
55474;BME280;65220;52.214;0.116;2023-06-24T05:09:09;102285.85;;;18.27;38.70
55474;BME280;65220;52.214;0.116;2023-06-24T05:11:34;102288.47;;;18.21;38.69
55474;BME280;65220;52.214;0.116;2023-06-24T05:14:00;102291.31;;;17.87;38.61
55474;BME280;65220;52.214;0.116;2023-06-24T05:16:24;102293.32;;;18.50;38.66
55474;BME280;65220;52.214;0.116;2023-06-24T05:18:49;102295.05;;;18.11;38.67
55474;BME280;65220;52.214;0.116;2023-06-24T05:21:15;102301.83;;;18.04;38.65
55474;BME280;65220;52.214;0.116;2023-06-24T05:23:39;102298.16;;;17.86;38.63
55474;BME280;65220;52.214;0.116;2023-06-24T05:26:05;102300.55;;;18.30;38.51
55474;BME280;65220;52.214;0.116;2023-06-24T05:28:30;102306.65;;;18.18;38.63
55474;BME280;65220;52.214;0.116;2023-06-24T05:30:56;102303.28;;;18.08;38.62
55474;BME280;65220;52.214;0.116;2023-06-24T05:33:21;102305.63;;;18.20;38.60
55474;BME280;65220;52.214;0.116;2023-06-24T05:35:47;102313.32;;;18.17;38.55
55474;BME280;65220;52.214;0.116;2023-06-24T05:38:12;102316.81;;;18.26;38.57
55474;BME280;65220;52.214;0.116;2023-06-24T05:40:37;102316.71;;;18.26;38.56
55474;BME280;65220;52.214;0.116;2023-06-24T05:43:02;102314.16;;;18.20;38.53
55474;BME280;65220;52.214;0.116;2023-06-24T05:45:27;102311.85;;;18.20;38.60
55474;BME280;65220;52.214;0.116;2023-06-24T05:47:52;102307.69;;;18.01;38.53
55474;BME280;65220;52.214;0.116;2023-06-24T05:50:18;102305.67;;;17.95;38.56
55474;BME280;65220;52.214;0.116;2023-06-24T05:52:43;102305.76;;;17.79;38.52
55474;BME280;65220;52.214;0.116;2023-06-24T05:55:08;102302.05;;;18.19;38.52
55474;BME280;65220;52.214;0.116;2023-06-24T05:57:33;102304.53;;;18.20;38.53
55474;BME280;65220;52.214;0.116;2023-06-24T05:59:58;102303.53;;;18.42;38.52
55474;BME280;65220;52.214;0.116;2023-06-24T06:02:23;102303.61;;;18.01;38.53
55474;BME280;65220;52.214;0.116;2023-06-24T06:04:50;102303.32;;;18.53;38.52
55474;BME280;65220;52.214;0.116;2023-06-24T06:07:14;102303.55;;;18.22;38.53
55474;BME280;65220;52.214;0.116;2023-06-24T06:09:39;102301.87;;;18.31;38.54
55474;BME280;65220;52.214;0.116;2023-06-24T06:12:06;102301.76;;;18.22;38.52
55474;BME280;65220;52.214;0.116;2023-06-24T06:14:30;102301.29;;;18.52;38.42
55474;BME280;65220;52.214;0.116;2023-06-24T06:16:55;102305.11;;;18.20;38.58
55474;BME280;65220;52.214;0.116;2023-06-24T06:19:20;102307.16;;;18.36;38.52
55474;BME280;65220;52.214;0.116;2023-06-24T06:21:45;102309.67;;;18.11;38.56
55474;BME280;65220;52.214;0.116;2023-06-24T06:24:11;102307.55;;;18.40;38.56
55474;BME280;65220;52.214;0.116;2023-06-24T06:26:41;102309.26;;;17.88;38.59
55474;BME280;65220;52.214;0.116;2023-06-24T06:29:01;102310.29;;;18.19;38.58
55474;BME280;65220;52.214;0.116;2023-06-24T06:31:26;102315.16;;;18.08;38.60
55474;BME280;65220;52.214;0.116;2023-06-24T06:33:51;102312.14;;;18.20;38.59
55474;BME280;65220;52.214;0.116;2023-06-24T06:36:17;102311.89;;;18.68;38.61
55474;BME280;65220;52.214;0.116;2023-06-24T06:38:41;102313.91;;;18.18;38.61
55474;BME280;65220;52.214;0.116;2023-06-24T06:41:07;102314.66;;;18.09;38.63
55474;BME280;65220;52.214;0.116;2023-06-24T06:43:33;102314.57;;;18.00;38.62
55474;BME280;65220;52.214;0.116;2023-06-24T06:45:57;102312.26;;;18.42;38.63
55474;BME280;65220;52.214;0.116;2023-06-24T06:48:22;102313.86;;;18.25;38.63
55474;BME280;65220;52.214;0.116;2023-06-24T06:50:47;102312.03;;;18.29;38.60
55474;BME280;65220;52.214;0.116;2023-06-24T06:53:13;102311.18;;;18.71;38.60
55474;BME280;65220;52.214;0.116;2023-06-24T06:55:38;102308.36;;;18.18;38.61
55474;BME280;65220;52.214;0.116;2023-06-24T06:58:04;102308.20;;;18.49;38.61
55474;BME280;65220;52.214;0.116;2023-06-24T07:00:29;102309.81;;;18.40;38.59
55474;BME280;65220;52.214;0.116;2023-06-24T07:02:55;102305.58;;;18.41;38.61
55474;BME280;65220;52.214;0.116;2023-06-24T07:05:20;102306.00;;;18.33;38.61
55474;BME280;65220;52.214;0.116;2023-06-24T07:07:46;102309.94;;;18.34;38.60
55474;BME280;65220;52.214;0.116;2023-06-24T07:10:11;102311.96;;;18.25;38.60
55474;BME280;65220;52.214;0.116;2023-06-24T07:12:36;102312.43;;;18.04;38.62
55474;BME280;65220;52.214;0.116;2023-06-24T07:15:01;102311.32;;;18.65;38.64
55474;BME280;65220;52.214;0.116;2023-06-24T07:17:26;102314.65;;;18.48;38.64
55474;BME280;65220;52.214;0.116;2023-06-24T07:19:51;102313.71;;;18.25;38.58
55474;BME280;65220;52.214;0.116;2023-06-24T07:22:16;102314.37;;;18.47;38.56
55474;BME280;65220;52.214;0.116;2023-06-24T07:24:42;102317.06;;;18.54;38.61
55474;BME280;65220;52.214;0.116;2023-06-24T07:27:07;102318.21;;;18.39;38.58
55474;BME280;65220;52.214;0.116;2023-06-24T07:29:32;102314.66;;;18.52;38.55
55474;BME280;65220;52.214;0.116;2023-06-24T07:31:57;102315.75;;;18.80;38.58
55474;BME280;65220;52.214;0.116;2023-06-24T07:34:22;102315.37;;;18.61;38.56
55474;BME280;65220;52.214;0.116;2023-06-24T07:36:47;102315.01;;;18.42;38.56
55474;BME280;65220;52.214;0.116;2023-06-24T07:39:13;102315.32;;;18.59;38.62
55474;BME280;65220;52.214;0.116;2023-06-24T07:41:38;102317.11;;;18.58;38.66
55474;BME280;65220;52.214;0.116;2023-06-24T07:44:03;102317.47;;;18.47;38.68
55474;BME280;65220;52.214;0.116;2023-06-24T07:46:28;102313.35;;;18.36;38.66
55474;BME280;65220;52.214;0.116;2023-06-24T07:48:53;102318.84;;;18.84;38.59
55474;BME280;65220;52.214;0.116;2023-06-24T07:51:18;102318.73;;;18.35;38.57
55474;BME280;65220;52.214;0.116;2023-06-24T07:53:44;102318.04;;;19.14;38.55
55474;BME280;65220;52.214;0.116;2023-06-24T07:56:09;102314.20;;;18.55;38.56
55474;BME280;65220;52.214;0.116;2023-06-24T07:58:35;102315.60;;;18.82;38.53
55474;BME280;65220;52.214;0.116;2023-06-24T08:00:59;102319.15;;;18.49;38.61
55474;BME280;65220;52.214;0.116;2023-06-24T08:03:25;102317.16;;;18.86;38.54
55474;BME280;65220;52.214;0.116;2023-06-24T08:05:50;102316.73;;;18.75;38.61
55474;BME280;65220;52.214;0.116;2023-06-24T08:08:15;102320.95;;;19.13;38.67
55474;BME280;65220;52.214;0.116;2023-06-24T08:10:40;102314.78;;;18.81;38.78
55474;BME280;65220;52.214;0.116;2023-06-24T08:13:05;102312.99;;;18.74;38.73
55474;BME280;65220;52.214;0.116;2023-06-24T08:15:31;102309.04;;;18.66;38.59
55474;BME280;65220;52.214;0.116;2023-06-24T08:17:56;102309.38;;;18.73;38.66
55474;BME280;65220;52.214;0.116;2023-06-24T08:20:22;102311.69;;;18.69;38.64
55474;BME280;65220;52.214;0.116;2023-06-24T08:22:46;102329.50;;;19.00;38.65
55474;BME280;65220;52.214;0.116;2023-06-24T08:25:11;102332.92;;;18.73;38.64
55474;BME280;65220;52.214;0.116;2023-06-24T08:27:36;102323.84;;;18.82;38.67
55474;BME280;65220;52.214;0.116;2023-06-24T08:30:02;102327.63;;;18.35;39.08
55474;BME280;65220;52.214;0.116;2023-06-24T08:32:27;102326.95;;;18.54;39.14
55474;BME280;65220;52.214;0.116;2023-06-24T08:34:52;102332.30;;;18.74;39.01
55474;BME280;65220;52.214;0.116;2023-06-24T08:37:18;102326.51;;;18.84;39.17
55474;BME280;65220;52.214;0.116;2023-06-24T08:39:43;102323.88;;;19.04;39.27
55474;BME280;65220;52.214;0.116;2023-06-24T08:42:09;102325.21;;;19.16;39.36
55474;BME280;65220;52.214;0.116;2023-06-24T08:44:34;102330.79;;;18.92;39.39
55474;BME280;65220;52.214;0.116;2023-06-24T08:46:59;102331.57;;;18.76;40.18
55474;BME280;65220;52.214;0.116;2023-06-24T08:49:28;102331.10;;;19.15;39.99
55474;BME280;65220;52.214;0.116;2023-06-24T08:51:53;102330.33;;;18.84;40.81
55474;BME280;65220;52.214;0.116;2023-06-24T08:54:15;102325.07;;;18.59;40.74
55474;BME280;65220;52.214;0.116;2023-06-24T08:56:41;102328.32;;;19.06;40.20
55474;BME280;65220;52.214;0.116;2023-06-24T08:59:06;102329.70;;;19.22;40.46
55474;BME280;65220;52.214;0.116;2023-06-24T09:01:30;102328.49;;;19.28;40.34
55474;BME280;65220;52.214;0.116;2023-06-24T09:03:56;102328.35;;;19.09;40.06
55474;BME280;65220;52.214;0.116;2023-06-24T09:06:21;102324.58;;;19.16;40.96
55474;BME280;65220;52.214;0.116;2023-06-24T09:08:53;102321.70;;;19.16;40.39
55474;BME280;65220;52.214;0.116;2023-06-24T09:11:11;102316.13;;;18.95;40.21
55474;BME280;65220;52.214;0.116;2023-06-24T09:13:36;102316.70;;;19.24;40.03
55474;BME280;65220;52.214;0.116;2023-06-24T09:16:12;102318.13;;;19.07;40.15
55474;BME280;65220;52.214;0.116;2023-06-24T09:18:31;102318.10;;;19.03;40.08
55474;BME280;65220;52.214;0.116;2023-06-24T09:20:54;102319.12;;;19.00;40.09
55474;BME280;65220;52.214;0.116;2023-06-24T09:23:17;102315.03;;;19.10;40.01
55474;BME280;65220;52.214;0.116;2023-06-24T09:25:42;102310.49;;;19.40;40.26
55474;BME280;65220;52.214;0.116;2023-06-24T09:28:07;102310.57;;;19.10;40.34
55474;BME280;65220;52.214;0.116;2023-06-24T09:30:32;102309.38;;;19.19;40.20
55474;BME280;65220;52.214;0.116;2023-06-24T09:32:58;102310.09;;;19.21;40.18
55474;BME280;65220;52.214;0.116;2023-06-24T09:35:24;102307.30;;;19.32;40.33
55474;BME280;65220;52.214;0.116;2023-06-24T09:37:50;102304.10;;;19.18;40.36
55474;BME280;65220;52.214;0.116;2023-06-24T09:40:13;102305.07;;;19.45;40.43
55474;BME280;65220;52.214;0.116;2023-06-24T09:42:48;102300.91;;;19.26;40.55
55474;BME280;65220;52.214;0.116;2023-06-24T09:45:05;102301.18;;;19.31;40.46
55474;BME280;65220;52.214;0.116;2023-06-24T09:47:29;102300.15;;;19.50;40.51
55474;BME280;65220;52.214;0.116;2023-06-24T09:49:54;102292.14;;;19.02;40.68
55474;BME280;65220;52.214;0.116;2023-06-24T09:52:20;102293.69;;;18.86;40.62
55474;BME280;65220;52.214;0.116;2023-06-24T09:54:46;102291.85;;;19.13;40.63
55474;BME280;65220;52.214;0.116;2023-06-24T09:57:10;102293.55;;;18.90;41.13
55474;BME280;65220;52.214;0.116;2023-06-24T09:59:36;102289.30;;;18.87;40.95
55474;BME280;65220;52.214;0.116;2023-06-24T10:02:02;102291.59;;;19.00;40.47
55474;BME280;65220;52.214;0.116;2023-06-24T10:04:27;102291.86;;;19.06;40.34
55474;BME280;65220;52.214;0.116;2023-06-24T10:06:52;102292.33;;;19.16;40.30
55474;BME280;65220;52.214;0.116;2023-06-24T10:09:17;102287.64;;;19.27;40.21
55474;BME280;65220;52.214;0.116;2023-06-24T10:11:43;102292.08;;;18.95;40.24
55474;BME280;65220;52.214;0.116;2023-06-24T10:14:09;102286.53;;;18.94;40.20
55474;BME280;65220;52.214;0.116;2023-06-24T10:16:34;102287.08;;;19.06;40.19
55474;BME280;65220;52.214;0.116;2023-06-24T10:19:00;102287.70;;;19.28;40.13
55474;BME280;65220;52.214;0.116;2023-06-24T10:21:44;102286.73;;;19.00;40.10
55474;BME280;65220;52.214;0.116;2023-06-24T10:23:52;102286.05;;;19.41;40.07
55474;BME280;65220;52.214;0.116;2023-06-24T10:26:23;102285.68;;;19.21;40.06
55474;BME280;65220;52.214;0.116;2023-06-24T10:29:13;102283.90;;;19.16;40.08
55474;BME280;65220;52.214;0.116;2023-06-24T10:31:06;102280.50;;;18.85;40.07
55474;BME280;65220;52.214;0.116;2023-06-24T10:33:38;102278.78;;;19.26;39.96
55474;BME280;65220;52.214;0.116;2023-06-24T10:36:00;102277.13;;;19.03;39.96
55474;BME280;65220;52.214;0.116;2023-06-24T10:38:23;102277.65;;;18.80;39.95
55474;BME280;65220;52.214;0.116;2023-06-24T10:40:49;102271.48;;;19.20;39.96
55474;BME280;65220;52.214;0.116;2023-06-24T10:43:30;102268.90;;;19.69;39.98
55474;BME280;65220;52.214;0.116;2023-06-24T10:45:48;102267.15;;;19.12;39.93
55474;BME280;65220;52.214;0.116;2023-06-24T10:48:06;102264.15;;;19.23;39.91
55474;BME280;65220;52.214;0.116;2023-06-24T10:50:31;102268.75;;;18.96;39.88
55474;BME280;65220;52.214;0.116;2023-06-24T10:52:57;102261.26;;;19.10;39.85
55474;BME280;65220;52.214;0.116;2023-06-24T10:55:23;102262.46;;;18.99;39.85
55474;BME280;65220;52.214;0.116;2023-06-24T10:57:48;102255.62;;;19.44;39.81
55474;BME280;65220;52.214;0.116;2023-06-24T11:00:14;102249.53;;;19.26;39.78
55474;BME280;65220;52.214;0.116;2023-06-24T14:00:11;102162.14;;;15.61;56.07
55474;BME280;65220;52.214;0.116;2023-06-24T14:02:35;102161.40;;;16.20;48.92
55474;BME280;65220;52.214;0.116;2023-06-24T14:05:00;102158.50;;;17.73;45.34
55474;BME280;65220;52.214;0.116;2023-06-24T14:07:25;102157.44;;;18.98;43.42
55474;BME280;65220;52.214;0.116;2023-06-24T14:09:50;102159.36;;;19.27;42.73
55474;BME280;65220;52.214;0.116;2023-06-24T14:12:15;102155.03;;;19.14;42.27
55474;BME280;65220;52.214;0.116;2023-06-24T14:14:40;102155.08;;;19.55;42.08
55474;BME280;65220;52.214;0.116;2023-06-24T14:17:06;102157.31;;;19.01;41.80
55474;BME280;65220;52.214;0.116;2023-06-24T14:19:30;102152.33;;;19.60;41.60
55474;BME280;65220;52.214;0.116;2023-06-24T14:21:56;102145.65;;;19.73;41.85
55474;BME280;65220;52.214;0.116;2023-06-24T14:24:21;102139.37;;;19.63;41.90
55474;BME280;65220;52.214;0.116;2023-06-24T14:26:46;102138.60;;;19.50;41.56
55474;BME280;65220;52.214;0.116;2023-06-24T14:29:11;102136.40;;;19.67;41.75
55474;BME280;65220;52.214;0.116;2023-06-24T14:31:36;102136.61;;;19.49;41.81
55474;BME280;65220;52.214;0.116;2023-06-24T14:34:01;102136.79;;;19.34;41.62
55474;BME280;65220;52.214;0.116;2023-06-24T14:36:26;102132.35;;;19.30;41.60
55474;BME280;65220;52.214;0.116;2023-06-24T14:38:52;102129.77;;;19.35;41.42
55474;BME280;65220;52.214;0.116;2023-06-24T14:41:17;102125.63;;;19.72;41.29
55474;BME280;65220;52.214;0.116;2023-06-24T14:43:42;102123.16;;;19.52;41.33
55474;BME280;65220;52.214;0.116;2023-06-24T14:46:07;102124.34;;;19.67;41.31
55474;BME280;65220;52.214;0.116;2023-06-24T14:48:33;102121.59;;;19.35;41.30
55474;BME280;65220;52.214;0.116;2023-06-24T14:50:58;102114.49;;;19.41;41.30
55474;BME280;65220;52.214;0.116;2023-06-24T14:53:23;102112.63;;;19.70;41.22
55474;BME280;65220;52.214;0.116;2023-06-24T14:55:48;102105.74;;;19.15;41.33
55474;BME280;65220;52.214;0.116;2023-06-24T14:58:13;102108.18;;;19.47;41.37
55474;BME280;65220;52.214;0.116;2023-06-24T15:00:39;102105.04;;;19.57;41.36
55474;BME280;65220;52.214;0.116;2023-06-24T15:03:04;102107.60;;;19.37;41.31
55474;BME280;65220;52.214;0.116;2023-06-24T15:05:29;102109.12;;;19.27;41.16
55474;BME280;65220;52.214;0.116;2023-06-24T15:07:54;102105.74;;;19.41;41.14
55474;BME280;65220;52.214;0.116;2023-06-24T15:10:19;102103.69;;;19.76;41.22
55474;BME280;65220;52.214;0.116;2023-06-24T15:12:44;102102.13;;;19.64;41.10
55474;BME280;65220;52.214;0.116;2023-06-24T15:15:10;102100.76;;;19.64;41.07
55474;BME280;65220;52.214;0.116;2023-06-24T15:17:35;102097.54;;;19.61;40.89
55474;BME280;65220;52.214;0.116;2023-06-24T15:20:00;102092.86;;;19.61;41.00
55474;BME280;65220;52.214;0.116;2023-06-24T15:22:25;102085.48;;;19.48;41.18
55474;BME280;65220;52.214;0.116;2023-06-24T15:24:50;102087.11;;;19.92;41.02
55474;BME280;65220;52.214;0.116;2023-06-24T15:27:15;102087.52;;;19.66;41.10
55474;BME280;65220;52.214;0.116;2023-06-24T15:29:40;102082.89;;;19.56;41.03
55474;BME280;65220;52.214;0.116;2023-06-24T15:32:06;102081.26;;;19.71;40.88
55474;BME280;65220;52.214;0.116;2023-06-24T15:34:30;102078.99;;;19.95;40.85
55474;BME280;65220;52.214;0.116;2023-06-24T15:36:56;102076.58;;;19.63;40.96
55474;BME280;65220;52.214;0.116;2023-06-24T15:39:21;102079.74;;;19.91;40.82